createdAt,value
2023-02-24T00:01:20.205Z,97302.25
2023-02-24T00:03:52.085Z,97301.13
2023-02-24T00:06:24.344Z,97292.94
2023-02-24T00:08:56.251Z,97292.74
2023-02-24T00:11:28.117Z,97291.54
2023-02-24T00:14:00.106Z,97284.61
2023-02-24T00:16:32.296Z,97279.41
2023-02-24T00:19:07.440Z,97278.66
2023-02-24T00:21:39.260Z,97277.17
2023-02-24T00:24:11.500Z,97273.23
2023-02-24T00:26:43.400Z,97266.36
2023-02-24T00:29:15.424Z,97263.58
2023-02-24T00:31:47.365Z,97261.84
2023-02-24T00:34:19.153Z,97264.84
2023-02-24T00:36:51.388Z,97256.74
2023-02-24T00:39:30.191Z,97254.95
2023-02-24T00:42:05.691Z,97254.58
2023-02-24T00:44:39.563Z,97252.61
2023-02-24T00:47:13.031Z,97252.34
2023-02-24T00:49:45.953Z,97252.50
2023-02-24T00:52:20.027Z,97248.81
2023-02-24T00:54:52.070Z,97249.52
2023-02-24T00:57:23.723Z,97239.98
2023-02-24T00:59:58.338Z,97241.36
2023-02-24T01:02:30.393Z,97239.77
2023-02-24T01:05:05.028Z,97233.91
2023-02-24T01:07:37.713Z,97228.54
2023-02-24T01:10:13.087Z,97223.37
2023-02-24T01:12:50.807Z,97221.41
2023-02-24T01:15:24.544Z,97224.30
2023-02-24T01:17:56.199Z,97215.75
2023-02-24T01:20:30.375Z,97216.91
2023-02-24T01:23:03.559Z,97211.92
2023-02-24T01:25:35.696Z,97210.79
2023-02-24T01:28:11.040Z,97204.39
2023-02-24T01:30:44.377Z,97208.20
2023-02-24T01:33:16.090Z,97206.81
2023-02-24T01:35:48.178Z,97201.27
2023-02-24T01:38:23.061Z,97196.60
2023-02-24T01:41:04.911Z,97195.77
2023-02-24T01:43:50.688Z,97188.67
2023-02-24T01:46:23.520Z,97190.40
2023-02-24T01:48:59.003Z,97189.83
2023-02-24T01:51:33.745Z,97188.10
2023-02-24T01:54:07.141Z,97181.13
2023-02-24T01:56:41.211Z,97177.61
2023-02-24T01:59:17.879Z,97176.77
2023-02-24T02:01:53.490Z,97174.77
2023-02-24T02:04:35.467Z,97170.88
2023-02-24T02:07:09.987Z,97169.36
2023-02-24T02:09:43.585Z,97167.95
2023-02-24T02:12:15.391Z,97166.68
2023-02-24T02:14:52.365Z,97160.76
2023-02-24T02:17:33.057Z,97156.92
2023-02-24T02:20:28.042Z,97155.23
2023-02-24T02:23:41.881Z,97153.77
2023-02-24T02:26:37.617Z,97151.39
2023-02-24T02:29:45.429Z,97147.27
2023-02-24T02:32:52.073Z,97143.81
2023-02-24T02:35:27.445Z,97136.52
2023-02-24T02:38:15.067Z,97140.05
2023-02-24T02:40:55.202Z,97134.73
2023-02-24T02:43:33.457Z,97137.98
2023-02-24T02:46:10.746Z,97131.03
2023-02-24T02:48:48.563Z,97127.27
2023-02-24T02:51:25.815Z,97126.33
2023-02-24T02:54:06.195Z,97123.69
2023-02-24T02:56:43.304Z,97123.49
2023-02-24T02:59:22.501Z,97119.89
2023-02-24T03:02:11.366Z,97116.93
2023-02-24T03:04:46.551Z,97113.02
2023-02-24T03:07:20.980Z,97111.77
2023-02-24T03:09:56.984Z,97107.25
2023-02-24T03:12:32.879Z,97106.05
2023-02-24T03:15:09.221Z,97102.56
2023-02-24T03:17:45.358Z,97101.50
2023-02-24T03:20:22.502Z,97098.55
2023-02-24T03:22:57.820Z,97095.95
2023-02-24T03:25:38.164Z,97091.67
2023-02-24T03:28:17.525Z,97088.33
2023-02-24T03:30:55.615Z,97086.91
2023-02-24T03:33:34.017Z,97084.48
2023-02-24T03:36:07.155Z,97081.88
2023-02-24T03:38:39.254Z,97079.13
2023-02-24T03:41:11.763Z,97079.65
2023-02-24T03:43:47.234Z,97075.58
2023-02-24T03:46:19.399Z,97071.52
2023-02-24T03:48:58.502Z,97071.64
2023-02-24T03:51:31.693Z,97069.77
2023-02-24T03:54:14.220Z,97067.08
2023-02-24T03:56:57.926Z,97067.21
2023-02-24T03:59:38.696Z,97060.73
2023-02-24T04:02:17.802Z,97062.66
2023-02-24T04:05:00.272Z,97061.73
2023-02-24T04:07:52.258Z,97060.42
2023-02-24T04:10:32.683Z,97055.78
2023-02-24T04:13:18.807Z,97053.08
2023-02-24T04:16:01.621Z,97051.75
2023-02-24T04:18:35.494Z,97044.91
2023-02-24T04:21:08.424Z,97041.98
2023-02-24T04:23:44.252Z,97037.57
2023-02-24T04:26:18.961Z,97033.13
2023-02-24T04:28:51.919Z,97035.97
2023-02-24T04:31:26.657Z,97028.57
2023-02-24T04:34:00.271Z,97026.80
2023-02-24T04:36:39.018Z,97019.00
2023-02-24T04:39:13.051Z,97017.27
2023-02-24T04:41:45.446Z,97012.23
2023-02-24T04:44:18.654Z,97010.52
2023-02-24T04:46:51.308Z,97004.80
2023-02-24T04:49:22.967Z,97003.70
2023-02-24T04:51:57.076Z,96994.83
2023-02-24T04:54:29.755Z,96990.05
2023-02-24T04:57:01.641Z,96989.64
2023-02-24T04:59:33.312Z,96983.73
2023-02-24T05:02:04.059Z,96979.34
2023-02-24T05:04:38.818Z,96972.36
2023-02-24T05:07:12.783Z,96969.84
2023-02-24T05:09:46.909Z,96968.88
2023-02-24T05:12:18.522Z,96964.91
2023-02-24T05:14:49.381Z,96962.25
2023-02-24T05:17:21.113Z,96962.85
2023-02-24T05:20:05.306Z,96960.17
2023-02-24T05:22:36.973Z,96960.52
2023-02-24T05:25:10.846Z,96957.20
2023-02-24T05:27:42.867Z,96960.01
2023-02-24T05:30:16.242Z,96958.05
2023-02-24T05:32:47.953Z,96959.18
2023-02-24T05:35:20.135Z,96959.40
2023-02-24T05:37:52.650Z,96953.20
2023-02-24T05:40:25.325Z,96949.28
2023-02-24T05:42:58.192Z,96949.12
2023-02-24T05:45:30.457Z,96948.49
2023-02-24T05:48:05.762Z,96948.64
2023-02-24T05:50:38.972Z,96950.38
2023-02-24T05:53:10.599Z,96952.41
2023-02-24T05:55:40.732Z,96946.75
2023-02-24T05:58:12.319Z,96943.44
2023-02-24T06:00:46.094Z,96941.54
2023-02-24T06:03:18.116Z,96937.58
2023-02-24T06:05:59.183Z,96933.60
2023-02-24T06:08:37.107Z,96926.76
2023-02-24T06:11:08.927Z,96929.85
2023-02-24T06:13:41.064Z,96930.64
2023-02-24T06:16:13.163Z,96932.61
2023-02-24T06:18:48.186Z,96931.66
2023-02-24T06:21:20.577Z,96934.90
2023-02-24T06:23:52.336Z,96928.12
2023-02-24T06:26:24.345Z,96926.60
2023-02-24T06:28:56.383Z,96925.33
2023-02-24T06:31:28.707Z,96923.61
2023-02-24T06:34:00.515Z,96924.85
2023-02-24T06:36:32.135Z,96924.49
2023-02-24T06:39:02.264Z,96921.35
2023-02-24T06:41:33.909Z,96919.48
2023-02-24T06:44:05.275Z,96919.00
2023-02-24T06:46:37.005Z,96920.66
2023-02-24T06:49:09.876Z,96919.52
2023-02-24T06:51:43.455Z,96920.78
2023-02-24T06:54:15.699Z,96916.91
2023-02-24T06:56:47.785Z,96919.08
2023-02-24T06:59:21.772Z,96917.13
2023-02-24T07:01:53.926Z,96914.67
2023-02-24T07:04:28.512Z,96912.91
2023-02-24T07:07:03.442Z,96910.20
2023-02-24T07:09:35.517Z,96913.40
2023-02-24T07:12:08.016Z,96910.77
2023-02-24T07:14:40.402Z,96907.81
2023-02-24T07:17:14.656Z,96908.48
2023-02-24T07:19:46.306Z,96902.77
2023-02-24T07:22:24.958Z,96900.02
2023-02-24T07:25:00.607Z,96897.37
2023-02-24T07:27:32.686Z,96895.98
2023-02-24T07:30:06.520Z,96892.84
2023-02-24T07:32:38.260Z,96892.11
2023-02-24T07:35:10.681Z,96889.71
2023-02-24T07:37:42.289Z,96884.80
2023-02-24T07:40:17.220Z,96884.55
2023-02-24T07:42:48.850Z,96881.06
2023-02-24T07:45:20.919Z,96881.83
2023-02-24T07:47:52.883Z,96879.33
2023-02-24T07:50:25.089Z,96882.56
2023-02-24T07:52:57.829Z,96878.66
2023-02-24T07:55:31.441Z,96878.35
2023-02-24T07:58:03.241Z,96875.83
2023-02-24T08:00:55.606Z,96874.66
2023-02-24T08:03:29.870Z,96871.96
2023-02-24T08:06:15.169Z,96867.13
2023-02-24T08:08:59.595Z,96863.73
2023-02-24T08:11:35.618Z,96859.32
2023-02-24T08:14:10.928Z,96863.67
2023-02-24T08:16:43.805Z,96862.71
2023-02-24T08:19:20.874Z,96856.63
2023-02-24T08:21:54.363Z,96852.14
2023-02-24T08:24:30.009Z,96851.63
2023-02-24T08:27:05.236Z,96852.09
2023-02-24T08:29:57.819Z,96846.95
2023-02-24T08:32:33.931Z,96843.83
2023-02-24T08:35:14.824Z,96842.88
2023-02-24T08:37:48.558Z,96842.19
2023-02-24T08:40:38.013Z,96842.57
2023-02-24T08:43:19.555Z,96834.36
2023-02-24T08:45:51.428Z,96834.20
2023-02-24T08:48:37.293Z,96832.19
2023-02-24T08:51:15.259Z,96833.48
2023-02-24T08:53:47.822Z,96827.67
2023-02-24T08:56:24.798Z,96829.50
2023-02-24T08:58:58.791Z,96827.74
2023-02-24T09:01:34.855Z,96818.95
2023-02-24T09:04:09.392Z,96820.88
2023-02-24T09:06:44.882Z,96819.77
2023-02-24T09:09:21.254Z,96821.78
2023-02-24T09:11:56.209Z,96819.39
2023-02-24T09:14:30.309Z,96816.50
2023-02-24T09:17:05.935Z,96814.96
2023-02-24T09:20:01.582Z,96812.77
2023-02-24T09:22:40.956Z,96808.20
2023-02-24T09:25:23.847Z,96808.53
2023-02-24T09:28:07.935Z,96804.64
2023-02-24T09:30:51.224Z,96802.79
2023-02-24T09:33:26.148Z,96800.94
2023-02-24T09:36:09.701Z,96800.89
2023-02-24T09:39:15.468Z,96795.98
2023-02-24T09:41:56.840Z,96794.41
2023-02-24T09:44:34.566Z,96795.41
2023-02-24T09:47:19.881Z,96791.59
2023-02-24T09:49:56.311Z,96781.80
2023-02-24T09:52:39.792Z,96779.96
2023-02-24T09:55:24.949Z,96779.08
2023-02-24T09:58:26.959Z,96774.05
2023-02-24T10:01:21.967Z,96774.10
2023-02-24T10:04:20.137Z,96776.41
2023-02-24T10:06:57.611Z,96769.13
2023-02-24T10:09:34.736Z,96772.52
2023-02-24T10:12:17.065Z,96772.33
2023-02-24T10:14:53.930Z,96766.27
2023-02-24T10:17:40.215Z,96766.43
2023-02-24T10:20:30.900Z,96763.17
2023-02-24T10:23:09.711Z,96755.77
2023-02-24T10:25:53.964Z,96751.98
2023-02-24T10:28:37.744Z,96748.38
2023-02-24T10:31:25.334Z,96747.34
2023-02-24T10:34:01.533Z,96748.36
2023-02-24T10:36:36.254Z,96743.42
2023-02-24T10:39:20.414Z,96738.16
2023-02-24T10:41:57.310Z,96732.74
2023-02-24T10:44:36.077Z,96726.73
2023-02-24T10:47:12.493Z,96722.73
2023-02-24T10:49:56.849Z,96720.80
2023-02-24T10:53:10.990Z,96712.61
2023-02-24T10:56:14.617Z,96705.83
2023-02-24T10:58:56.494Z,96702.02
2023-02-24T11:01:43.663Z,96696.16
2023-02-24T11:04:33.433Z,96695.06
2023-02-24T11:07:12.718Z,96692.50
2023-02-24T11:09:52.232Z,96677.26
2023-02-24T11:12:43.924Z,96671.73
2023-02-24T11:15:44.200Z,96665.34
2023-02-24T11:18:20.472Z,96657.05
2023-02-24T11:20:55.118Z,96653.42
2023-02-24T11:23:30.917Z,96646.28
2023-02-24T11:26:04.769Z,96638.92
2023-02-24T11:29:00.604Z,96634.35
2023-02-24T11:31:44.021Z,96631.19
2023-02-24T11:34:24.832Z,96634.50
2023-02-24T11:37:09.134Z,96631.01
2023-02-24T11:39:54.129Z,96626.94
2023-02-24T11:42:31.126Z,96626.48
2023-02-24T11:45:09.737Z,96623.65
2023-02-24T11:47:47.581Z,96623.61
2023-02-24T11:50:32.054Z,96622.91
2023-02-24T11:53:09.025Z,96627.06
2023-02-24T11:55:46.835Z,96616.31
2023-02-24T11:58:24.779Z,96605.27
2023-02-24T12:01:00.506Z,96596.50
2023-02-24T12:03:42.876Z,96597.65
2023-02-24T12:06:21.407Z,96592.17
2023-02-24T12:08:58.508Z,96586.33
2023-02-24T12:11:38.724Z,96585.55
2023-02-24T12:14:23.406Z,96577.44
2023-02-24T12:17:04.022Z,96571.71
2023-02-24T12:19:42.318Z,96568.08
2023-02-24T12:22:16.945Z,96563.77
2023-02-24T12:24:52.725Z,96560.79
2023-02-24T12:27:42.234Z,96555.41
2023-02-24T12:30:34.283Z,96554.99
2023-02-24T12:33:24.969Z,96552.63
2023-02-24T12:36:04.165Z,96547.75
2023-02-24T12:38:51.369Z,96545.45
2023-02-24T12:41:36.322Z,96539.80
2023-02-24T12:44:24.216Z,96534.57
2023-02-24T12:47:03.896Z,96536.37
2023-02-24T12:49:56.492Z,96530.59
2023-02-24T12:52:36.290Z,96523.00
2023-02-24T12:55:20.022Z,96523.89
2023-02-24T12:57:57.154Z,96523.30
2023-02-24T13:00:36.490Z,96518.95
2023-02-24T13:03:23.484Z,96512.55
2023-02-24T13:06:03.804Z,96505.69
2023-02-24T13:08:49.876Z,96499.70
2023-02-24T13:11:36.057Z,96494.81
2023-02-24T13:14:19.148Z,96487.56
2023-02-24T13:16:50.881Z,96483.70
2023-02-24T13:19:29.394Z,96473.66
2023-02-24T13:22:09.727Z,96472.46
2023-02-24T13:24:44.004Z,96470.36
2023-02-24T13:27:25.820Z,96468.88
2023-02-24T13:30:00.485Z,96468.39
2023-02-24T13:32:34.432Z,96466.46
2023-02-24T13:35:21.772Z,96466.52
2023-02-24T13:37:53.928Z,96467.39
2023-02-24T13:40:28.220Z,96468.04
2023-02-24T13:43:04.680Z,96462.69
2023-02-24T13:45:39.603Z,96463.06
2023-02-24T13:48:50.682Z,96458.16
2023-02-24T13:51:53.502Z,96455.17
2023-02-24T13:54:45.047Z,96446.35
2023-02-24T13:57:37.728Z,96443.88
2023-02-24T14:00:23.350Z,96436.61
2023-02-24T14:02:55.585Z,96437.92
2023-02-24T14:05:31.083Z,96436.23
2023-02-24T14:08:04.445Z,96427.83
2023-02-24T14:10:37.764Z,96420.15
2023-02-24T14:13:17.392Z,96424.33
2023-02-24T14:15:49.678Z,96420.08
2023-02-24T14:18:23.994Z,96417.55
2023-02-24T14:20:57.157Z,96416.40
2023-02-24T14:23:31.377Z,96412.30
2023-02-24T14:26:06.201Z,96417.25
2023-02-24T14:28:40.512Z,96412.69
2023-02-24T14:31:14.824Z,96410.34
2023-02-24T14:33:47.665Z,96406.69
2023-02-24T14:36:24.679Z,96408.36
2023-02-24T14:39:09.833Z,96399.09
2023-02-24T14:41:41.674Z,96397.27
2023-02-24T14:44:23.224Z,96387.63
2023-02-24T14:46:57.054Z,96386.86
2023-02-24T14:49:30.363Z,96383.14
2023-02-24T14:52:06.262Z,96381.80
2023-02-24T14:54:44.559Z,96377.40
2023-02-24T14:57:21.078Z,96372.23
2023-02-24T14:59:56.504Z,96371.87
2023-02-24T15:02:34.044Z,96370.38
2023-02-24T15:05:08.638Z,96368.69
2023-02-24T15:07:41.190Z,96355.21
2023-02-24T15:10:22.591Z,96354.67
2023-02-24T15:13:00.467Z,96351.49
2023-02-24T15:15:38.472Z,96338.73
2023-02-24T15:18:25.296Z,96329.03
2023-02-24T15:21:06.107Z,96322.27
2023-02-24T15:23:39.667Z,96349.51
2023-02-24T15:26:30.678Z,96340.33
2023-02-24T15:29:04.596Z,96341.56
2023-02-24T15:31:36.402Z,96342.89
2023-02-24T15:34:17.927Z,96342.96
2023-02-24T15:36:51.202Z,96350.44
2023-02-24T15:39:27.736Z,96356.30
2023-02-24T15:42:10.526Z,96344.54
2023-02-24T15:44:52.130Z,96331.89
2023-02-24T15:47:24.184Z,96317.20
2023-02-24T15:49:55.826Z,96315.99
2023-02-24T15:52:29.824Z,96318.55
2023-02-24T15:55:02.604Z,96323.77
2023-02-24T15:57:34.928Z,96322.50
2023-02-24T16:00:13.297Z,96318.41
2023-02-24T16:02:45.355Z,96310.09
2023-02-24T16:05:17.905Z,96306.49
2023-02-24T16:07:50.623Z,96297.74
2023-02-24T16:10:27.587Z,96292.73
2023-02-24T16:13:01.851Z,96290.05
2023-02-24T16:15:37.824Z,96285.90
2023-02-24T16:18:22.053Z,96281.13
2023-02-24T16:20:56.532Z,96279.55
2023-02-24T16:23:29.068Z,96279.27
2023-02-24T16:26:01.677Z,96278.64
2023-02-24T16:28:34.616Z,96273.58
2023-02-24T16:31:07.428Z,96270.02
2023-02-24T16:33:53.531Z,96284.00
2023-02-24T16:36:28.164Z,96295.94
2023-02-24T16:39:01.172Z,96298.14
2023-02-24T16:41:33.288Z,96284.25
2023-02-24T16:44:04.907Z,96275.09
2023-02-24T16:46:37.692Z,96285.48
2023-02-24T16:49:13.751Z,96283.98
2023-02-24T16:51:45.502Z,96289.26
2023-02-24T16:54:17.443Z,96293.39
2023-02-24T16:56:49.627Z,96284.80
2023-02-24T16:59:21.548Z,96278.14
2023-02-24T17:01:55.475Z,96270.27
2023-02-24T17:04:27.867Z,96273.02
2023-02-24T17:06:59.692Z,96265.48
2023-02-24T17:09:33.335Z,96263.73
2023-02-24T17:12:05.693Z,96265.66
2023-02-24T17:14:37.473Z,96265.18
2023-02-24T17:17:12.633Z,96262.27
2023-02-24T17:19:44.407Z,96266.00
2023-02-24T17:22:16.115Z,96262.64
2023-02-24T17:24:50.285Z,96257.13
2023-02-24T17:27:21.928Z,96257.80
2023-02-24T17:29:53.623Z,96260.55
2023-02-24T17:32:25.719Z,96275.52
2023-02-24T17:34:57.648Z,96268.35
2023-02-24T17:37:29.286Z,96250.91
2023-02-24T17:40:01.054Z,96256.02
2023-02-24T17:42:34.589Z,96241.36
2023-02-24T17:45:11.779Z,96246.57
2023-02-24T17:47:43.586Z,96243.73
2023-02-24T17:50:16.902Z,96236.00
2023-02-24T17:52:49.105Z,96226.41
2023-02-24T17:55:24.358Z,96214.66
2023-02-24T17:57:57.309Z,96211.70
2023-02-24T18:00:29.432Z,96205.43
2023-02-24T18:03:03.390Z,96213.09
2023-02-24T18:05:35.418Z,96209.31
2023-02-24T18:08:05.715Z,96209.09
2023-02-24T18:10:37.380Z,96207.20
2023-02-24T18:13:09.213Z,96209.23
2023-02-24T18:15:42.032Z,96209.45
2023-02-24T18:18:14.014Z,96201.73
2023-02-24T18:20:46.558Z,96199.42
2023-02-24T18:23:18.604Z,96196.36
2023-02-24T18:25:50.382Z,96190.78
2023-02-24T18:28:22.114Z,96191.05
2023-02-24T18:30:54.042Z,96193.48
2023-02-24T18:33:26.112Z,96195.30
2023-02-24T18:36:02.027Z,96191.65
2023-02-24T18:38:33.762Z,96183.95
2023-02-24T18:41:07.831Z,96180.77
2023-02-24T18:43:39.477Z,96178.51
2023-02-24T18:46:11.627Z,96172.77
2023-02-24T18:48:45.872Z,96170.48
2023-02-24T18:51:20.630Z,96169.18
2023-02-24T18:53:53.297Z,96168.27
2023-02-24T18:56:26.764Z,96165.96
2023-02-24T18:59:00.496Z,96165.87
2023-02-24T19:01:34.733Z,96158.23
2023-02-24T19:04:07.526Z,96149.88
2023-02-24T19:06:41.620Z,96149.44
2023-02-24T19:09:13.923Z,96142.17
2023-02-24T19:11:46.298Z,96140.95
2023-02-24T19:14:18.274Z,96133.64
2023-02-24T19:16:50.017Z,96133.01
2023-02-24T19:19:22.794Z,96133.10
2023-02-24T19:21:54.506Z,96129.06
2023-02-24T19:24:26.147Z,96123.94
2023-02-24T19:26:58.014Z,96119.63
2023-02-24T19:29:30.145Z,96119.15
2023-02-24T19:32:02.162Z,96111.27
2023-02-24T19:34:34.063Z,96106.48
2023-02-24T19:37:06.310Z,96098.97
2023-02-24T19:39:38.154Z,96092.95
2023-02-24T19:42:10.063Z,96096.23
2023-02-24T19:44:42.736Z,96092.67
2023-02-24T19:47:14.687Z,96083.48
2023-02-24T19:49:46.742Z,96076.45
2023-02-24T19:52:18.621Z,96069.30
2023-02-24T19:54:50.718Z,96062.56
2023-02-24T19:57:23.287Z,96058.43
2023-02-24T19:59:55.614Z,96053.83
2023-02-24T20:02:29.487Z,96053.20
2023-02-24T20:05:03.005Z,96050.95
2023-02-24T20:07:36.988Z,96045.89
2023-02-24T20:10:13.329Z,96038.80
2023-02-24T20:12:45.974Z,96036.86
2023-02-24T20:15:19.164Z,96035.73
2023-02-24T20:17:51.254Z,96035.05
2023-02-24T20:20:23.677Z,96028.98
2023-02-24T20:22:56.085Z,96020.18
2023-02-24T20:25:29.050Z,96016.95
2023-02-24T20:28:02.265Z,96016.66
2023-02-24T20:30:34.489Z,96014.36
2023-02-24T20:33:06.607Z,96008.76
2023-02-24T20:35:41.489Z,96004.83
2023-02-24T20:38:13.621Z,95997.23
2023-02-24T20:40:46.054Z,95994.23
2023-02-24T20:43:18.174Z,95985.56
2023-02-24T20:45:50.181Z,95974.73
2023-02-24T20:48:22.608Z,95975.77
2023-02-24T20:50:54.846Z,95964.23
2023-02-24T20:53:26.582Z,95957.32
2023-02-24T20:56:03.986Z,95958.13
2023-02-24T20:58:36.120Z,95956.00
2023-02-24T21:01:08.332Z,95947.73
2023-02-24T21:03:40.380Z,95939.46
2023-02-24T21:06:14.156Z,95931.09
2023-02-24T21:08:46.457Z,95926.09
2023-02-24T21:11:18.140Z,95931.57
2023-02-24T21:13:51.642Z,95917.39
2023-02-24T21:16:24.609Z,95915.82
2023-02-24T21:18:58.641Z,95919.33
2023-02-24T21:21:31.330Z,95916.32
2023-02-24T21:24:03.299Z,95913.23
2023-02-24T21:26:35.277Z,95914.15
2023-02-24T21:29:05.508Z,95916.14
2023-02-24T21:31:37.287Z,95920.52
2023-02-24T21:34:11.401Z,95918.73
2023-02-24T21:36:43.239Z,95915.65
2023-02-24T21:39:15.315Z,95918.05
2023-02-24T21:41:47.657Z,95923.58
2023-02-24T21:44:19.290Z,95912.38
2023-02-24T21:46:49.724Z,95887.75
2023-02-24T21:49:23.478Z,95883.08
2023-02-24T21:51:56.059Z,95881.52
2023-02-24T21:54:28.624Z,95884.36
2023-02-24T21:57:00.311Z,95880.41
2023-02-24T21:59:30.409Z,95870.27
2023-02-24T22:02:02.289Z,95861.89
2023-02-24T22:04:34.425Z,95863.45
2023-02-24T22:07:06.409Z,95865.01
2023-02-24T22:09:38.080Z,95870.01
2023-02-24T22:12:08.577Z,95870.63
2023-02-24T22:14:40.240Z,95874.27
2023-02-24T22:17:11.901Z,95869.13
2023-02-24T22:19:42.045Z,95860.38
2023-02-24T22:22:13.727Z,95855.15
2023-02-24T22:24:45.366Z,95854.29
2023-02-24T22:27:15.507Z,95853.66
2023-02-24T22:29:48.435Z,95853.25
2023-02-24T22:32:20.142Z,95852.91
2023-02-24T22:34:52.199Z,95851.64
2023-02-24T22:37:24.066Z,95850.90
2023-02-24T22:39:56.013Z,95845.13
2023-02-24T22:42:27.664Z,95847.27
2023-02-24T22:45:00.311Z,95840.56
2023-02-24T22:47:32.089Z,95836.48
2023-02-24T22:50:04.033Z,95835.58
2023-02-24T22:52:35.733Z,95831.85
2023-02-24T22:55:08.378Z,95826.98
2023-02-24T22:57:39.981Z,95824.27
2023-02-24T23:00:19.973Z,95822.70
2023-02-24T23:02:51.890Z,95826.58
2023-02-24T23:05:23.529Z,95823.14
2023-02-24T23:07:55.332Z,95821.06
2023-02-24T23:10:25.494Z,95819.59
2023-02-24T23:12:57.117Z,95824.05
2023-02-24T23:15:27.244Z,95825.77
2023-02-24T23:17:58.890Z,95826.89
2023-02-24T23:20:30.486Z,95821.71
2023-02-24T23:23:01.708Z,95825.66
2023-02-24T23:25:33.765Z,95818.06
2023-02-24T23:28:05.805Z,95818.61
2023-02-24T23:30:41.211Z,95816.67
2023-02-24T23:33:13.308Z,95813.29
2023-02-24T23:35:46.682Z,95818.79
2023-02-24T23:38:18.549Z,95812.81
2023-02-24T23:40:51.025Z,95804.95
2023-02-24T23:43:22.841Z,95808.36
2023-02-24T23:45:54.727Z,95802.59
2023-02-24T23:48:26.385Z,95798.77
2023-02-24T23:50:57.319Z,95787.53
2023-02-24T23:53:29.251Z,95785.39
2023-02-24T23:55:59.351Z,95784.89
2023-02-24T23:58:30.920Z,95773.48
